Time;durP1;ratioP1;P1;durP2;ratioP2;P2;SDS_P1;SDS_P2;PMS_P1;PMS_P2;Temp;Humidity;BMP_temperature;BMP_pressure;BME280_temperature;BME280_humidity;BME280_pressure;Samples;Min_cycle;Max_cycle;Signal;HPM_P1;HPM_P2
2022/11/13 00:01:17;;;;;;;;;;;5.10;99.90;;;;;;5008883;28;19940;-74
2022/11/13 00:04:03;;;;;;;;;;;5.10;99.90;;;;;;4990370;28;19936;-73
2022/11/13 00:06:48;;;;;;;;;;;5.10;99.90;;;;;;4993953;28;19931;-72
2022/11/13 00:09:33;;;;;;;;;;;5.10;99.90;;;;;;5009190;28;20414;-74
2022/11/13 00:12:23;;;;;;;;;;;5.00;99.90;;;;;;4993390;28;20427;-74
2022/11/13 00:15:14;;;;;;;;;;;5.00;99.90;;;;;;4996278;28;20051;-73
2022/11/13 00:18:04;;;;;;;;;;;4.90;99.90;;;;;;4995818;28;19980;-74
2022/11/13 00:21:02;;;;;;;;;;;4.90;99.90;;;;;;5008536;28;19933;-73
2022/11/13 00:23:53;;;;;;;;;;;4.90;99.90;;;;;;5008884;28;20069;-74
2022/11/13 00:26:43;;;;;;;;;;;4.90;99.90;;;;;;4993516;28;20019;-74
2022/11/13 00:29:33;;;;;;;;;;;4.90;99.90;;;;;;4992556;28;20022;-74
2022/11/13 00:32:19;;;;;;;;;;;4.90;99.90;;;;;;4995827;28;19974;-73
2022/11/13 00:35:05;;;;;;;;;;;4.90;99.90;;;;;;4992659;28;20307;-73
2022/11/13 00:37:55;;;;;;;;;;;4.90;99.90;;;;;;4989769;28;19932;-73
2022/11/13 00:40:40;;;;;;;;;;;4.90;99.90;;;;;;5009550;28;20023;-74
2022/11/13 00:43:30;;;;;;;;;;;4.90;99.90;;;;;;4993849;28;20099;-73
2022/11/13 00:46:20;;;;;;;;;;;4.80;99.90;;;;;;5006211;28;19933;-73
2022/11/13 00:49:05;;;;;;;;;;;4.80;99.90;;;;;;4995818;28;19977;-73
2022/11/13 00:51:56;;;;;;;;;;;4.70;99.90;;;;;;4996389;28;20109;-75
2022/11/13 00:54:41;;;;;;;;;;;4.70;99.90;;;;;;4995502;28;19932;-72
2022/11/13 00:57:26;;;;;;;;;;;4.70;99.90;;;;;;4995312;28;20044;-74
2022/11/13 01:00:16;;;;;;;;;;;4.70;99.90;;;;;;5007172;28;19932;-74
2022/11/13 01:03:06;;;;;;;;;;;4.70;99.90;;;;;;4996459;28;19933;-73
2022/11/13 01:05:57;;;;;;;;;;;4.70;99.90;;;;;;4995627;28;20015;-74
2022/11/13 01:08:47;;;;;;;;;;;4.70;99.90;;;;;;4990511;28;20023;-75
2022/11/13 01:11:32;;;;;;;;;;;4.60;99.90;;;;;;4995663;28;20339;-73
2022/11/13 01:14:23;;;;;;;;;;;4.60;99.90;;;;;;4997127;28;20315;-74
2022/11/13 01:17:13;;;;;;;;;;;4.60;99.90;;;;;;5013069;28;19936;-74
2022/11/13 01:20:03;;;;;;;;;;;4.60;99.90;;;;;;4999793;28;19936;-74
2022/11/13 01:22:53;;;;;;;;;;;4.60;99.90;;;;;;4996365;28;20445;-74
2022/11/13 01:25:39;;;;;;;;;;;4.60;99.90;;;;;;4997633;28;19948;-74
2022/11/13 01:28:29;;;;;;;;;;;4.60;99.90;;;;;;5013473;28;19993;-74
2022/11/13 01:31:20;;;;;;;;;;;4.50;99.90;;;;;;5010138;28;19936;-74
2022/11/13 01:34:10;;;;;;;;;;;4.50;99.90;;;;;;5008033;28;19933;-74
2022/11/13 01:37:01;;;;;;;;;;;4.50;99.90;;;;;;5013633;28;19931;-74
2022/11/13 01:39:51;;;;;;;;;;;4.50;99.90;;;;;;4997104;28;19932;-74
2022/11/13 01:42:41;;;;;;;;;;;4.50;99.90;;;;;;4999890;28;20331;-75
2022/11/13 01:45:50;;;;;;;;;;;4.50;99.90;;;;;;4999278;28;19944;-75
2022/11/13 01:48:44;;;;;;;;;;;4.50;99.90;;;;;;4999600;28;19933;-75
2022/11/13 01:52:01;;;;;;;;;;;4.50;99.90;;;;;;4999463;28;20011;-74
2022/11/13 01:54:48;;;;;;;;;;;4.50;99.90;;;;;;4996329;28;19983;-73
2022/11/13 01:57:39;;;;;;;;;;;4.50;99.90;;;;;;4997234;28;20068;-72
2022/11/13 02:00:29;;;;;;;;;;;4.50;99.90;;;;;;5013068;28;19933;-74
2022/11/13 02:03:20;;;;;;;;;;;4.50;99.90;;;;;;5012918;28;20031;-74
2022/11/13 02:06:05;;;;;;;;;;;4.50;99.90;;;;;;5009571;28;19932;-73
2022/11/13 02:08:55;;;;;;;;;;;4.40;99.90;;;;;;5012930;28;19952;-73
2022/11/13 02:11:45;;;;;;;;;;;4.40;99.90;;;;;;5012091;28;19932;-73
2022/11/13 02:14:38;;;;;;;;;;;4.30;99.90;;;;;;4998118;28;20038;-73
2022/11/13 02:17:32;;;;;;;;;;;4.30;99.90;;;;;;4994605;28;19936;-73
2022/11/13 02:20:46;;;;;;;;;;;4.30;99.90;;;;;;5012651;28;19935;-73
2022/11/13 02:23:42;;;;;;;;;;;4.30;99.90;;;;;;5011882;28;20292;-71
2022/11/13 02:26:28;;;;;;;;;;;4.30;99.90;;;;;;5010017;28;19932;-74
2022/11/13 02:29:18;;;;;;;;;;;4.30;99.90;;;;;;4995922;28;19933;-73
2022/11/13 02:32:04;;;;;;;;;;;4.30;99.90;;;;;;4997248;28;19933;-73
2022/11/13 02:34:54;;;;;;;;;;;4.20;99.90;;;;;;4992717;28;19937;-73
2022/11/13 02:37:39;;;;;;;;;;;4.20;99.90;;;;;;5011756;28;19933;-74
2022/11/13 02:40:30;;;;;;;;;;;4.20;99.90;;;;;;4997981;28;19936;-75
2022/11/13 02:43:20;;;;;;;;;;;4.20;99.90;;;;;;4998215;28;20300;-75
2022/11/13 02:46:10;;;;;;;;;;;4.20;99.90;;;;;;5001007;28;20064;-74
2022/11/13 02:49:00;;;;;;;;;;;4.20;99.90;;;;;;4994761;28;19932;-74
2022/11/13 02:51:50;;;;;;;;;;;4.20;99.90;;;;;;5011975;28;19933;-73
2022/11/13 02:54:35;;;;;;;;;;;4.20;99.90;;;;;;4997213;28;19932;-73
2022/11/13 02:57:20;;;;;;;;;;;4.20;99.90;;;;;;4992947;28;19932;-74
2022/11/13 03:00:12;;;;;;;;;;;4.30;99.90;;;;;;4997925;28;20549;-74
2022/11/13 03:03:02;;;;;;;;;;;4.30;99.90;;;;;;4997713;28;20000;-75
2022/11/13 03:05:52;;;;;;;;;;;4.30;99.90;;;;;;5008574;28;20600;-73
2022/11/13 03:08:42;;;;;;;;;;;4.20;99.90;;;;;;4997683;28;19932;-74
2022/11/13 03:11:32;;;;;;;;;;;4.20;99.90;;;;;;5010695;28;20019;-73
2022/11/13 03:14:23;;;;;;;;;;;4.20;99.90;;;;;;5008586;28;19979;-72
2022/11/13 03:17:13;;;;;;;;;;;4.20;99.90;;;;;;4995870;28;19987;-74
2022/11/13 03:20:04;;;;;;;;;;;4.20;99.90;;;;;;5011111;28;19960;-73
2022/11/13 03:22:53;;;;;;;;;;;4.20;99.90;;;;;;4997529;28;19975;-74
2022/11/13 03:25:44;;;;;;;;;;;4.20;99.90;;;;;;5009215;28;19997;-74
2022/11/13 03:28:29;;;;;;;;;;;4.20;99.90;;;;;;4996172;28;19932;-74
2022/11/13 03:31:19;;;;;;;;;;;4.10;99.90;;;;;;4995886;28;19937;-74
2022/11/13 03:34:04;;;;;;;;;;;4.20;99.90;;;;;;5010935;28;20022;-74
2022/11/13 03:36:54;;;;;;;;;;;4.10;99.90;;;;;;5009457;28;20344;-74
2022/11/13 03:39:44;;;;;;;;;;;4.10;99.90;;;;;;4996166;28;19936;-75
2022/11/13 03:42:35;;;;;;;;;;;4.10;99.90;;;;;;5011077;28;20087;-74
2022/11/13 03:45:25;;;;;;;;;;;4.00;99.90;;;;;;4996876;28;19940;-75
2022/11/13 03:48:15;;;;;;;;;;;4.00;99.90;;;;;;5010441;28;20297;-74
2022/11/13 03:51:05;;;;;;;;;;;4.00;99.90;;;;;;4995722;28;19936;-74
2022/11/13 03:53:56;;;;;;;;;;;4.00;99.90;;;;;;5010549;28;19931;-75
2022/11/13 03:56:46;;;;;;;;;;;4.00;99.90;;;;;;4996142;28;19963;-75
2022/11/13 03:59:36;;;;;;;;;;;4.00;99.90;;;;;;4996411;28;19932;-73
2022/11/13 04:02:21;;;;;;;;;;;4.00;99.90;;;;;;4995352;28;19933;-73
2022/11/13 04:05:11;;;;;;;;;;;4.00;99.90;;;;;;4993871;28;19948;-74
2022/11/13 04:08:01;;;;;;;;;;;4.00;99.90;;;;;;4995244;28;19983;-73
2022/11/13 04:10:52;;;;;;;;;;;4.00;99.90;;;;;;4995852;28;19936;-75
2022/11/13 04:13:42;;;;;;;;;;;4.00;99.90;;;;;;4995604;28;20054;-75
2022/11/13 04:16:32;;;;;;;;;;;3.90;99.90;;;;;;5009590;28;19937;-75
2022/11/13 04:19:22;;;;;;;;;;;3.90;99.90;;;;;;5010416;28;19937;-74
2022/11/13 04:22:12;;;;;;;;;;;3.90;99.90;;;;;;4996756;28;19936;-74
2022/11/13 04:25:03;;;;;;;;;;;3.90;99.90;;;;;;4997544;28;20391;-76
2022/11/13 04:27:53;;;;;;;;;;;3.90;99.90;;;;;;5009899;28;19932;-75
2022/11/13 04:30:43;;;;;;;;;;;3.90;99.90;;;;;;4996342;28;19961;-75
2022/11/13 04:33:28;;;;;;;;;;;3.90;99.90;;;;;;4994588;28;20079;-73
2022/11/13 04:36:13;;;;;;;;;;;3.90;99.90;;;;;;4992405;28;20399;-75
2022/11/13 04:39:04;;;;;;;;;;;3.90;99.90;;;;;;4996066;28;19936;-75
2022/11/13 04:45:19;;;;;;;;;;;3.90;99.90;;;;;;4961352;28;19934;-75
2022/11/13 04:48:09;;;;;;;;;;;3.90;99.90;;;;;;4968596;28;19933;-75
2022/11/13 04:50:53;;;;;;;;;;;3.90;99.90;;;;;;4996516;28;19956;-76
2022/11/13 04:53:39;;;;;;;;;;;3.90;99.90;;;;;;5004283;28;20008;-75
2022/11/13 04:56:29;;;;;;;;;;;3.90;99.90;;;;;;4999524;28;20457;-75
2022/11/13 04:59:19;;;;;;;;;;;3.90;99.90;;;;;;5000340;28;20703;-75
2022/11/13 05:02:04;;;;;;;;;;;3.90;99.90;;;;;;4999447;28;19932;-76
2022/11/13 05:04:50;;;;;;;;;;;3.80;99.90;;;;;;5000945;28;19941;-73
2022/11/13 05:07:41;;;;;;;;;;;3.80;99.90;;;;;;5011942;28;20025;-72
2022/11/13 05:10:31;;;;;;;;;;;3.80;99.90;;;;;;5000079;28;19933;-73
2022/11/13 05:13:17;;;;;;;;;;;3.80;99.90;;;;;;5013058;28;20490;-74
2022/11/13 05:16:08;;;;;;;;;;;3.80;99.90;;;;;;4999460;28;20607;-71
2022/11/13 05:18:53;;;;;;;;;;;3.90;99.90;;;;;;4999291;28;19931;-72
2022/11/13 05:21:38;;;;;;;;;;;3.90;99.90;;;;;;5013355;28;20218;-73
2022/11/13 05:24:24;;;;;;;;;;;3.90;99.90;;;;;;5010646;28;20637;-74
2022/11/13 05:27:14;;;;;;;;;;;3.90;99.90;;;;;;5010555;28;20511;-73
2022/11/13 05:30:05;;;;;;;;;;;3.90;99.90;;;;;;4999835;28;19936;-75
2022/11/13 05:32:50;;;;;;;;;;;3.90;99.90;;;;;;4998193;28;19937;-72
2022/11/13 05:35:40;;;;;;;;;;;3.90;99.90;;;;;;5013647;28;19968;-73
2022/11/13 05:38:31;;;;;;;;;;;3.90;99.90;;;;;;4999735;28;19932;-75
2022/11/13 05:41:21;;;;;;;;;;;3.90;99.90;;;;;;5012941;28;20022;-75
2022/11/13 05:44:12;;;;;;;;;;;3.80;99.90;;;;;;4999619;28;19932;-75
2022/11/13 05:47:02;;;;;;;;;;;3.90;99.90;;;;;;5013008;28;20011;-73
2022/11/13 05:49:47;;;;;;;;;;;3.80;99.90;;;;;;4997327;28;20036;-74
2022/11/13 05:52:32;;;;;;;;;;;3.80;99.90;;;;;;4997956;28;19932;-75
2022/11/13 05:55:23;;;;;;;;;;;3.80;99.90;;;;;;4999321;28;19936;-74
2022/11/13 05:58:13;;;;;;;;;;;3.80;99.90;;;;;;4997675;28;19933;-73
2022/11/13 06:01:11;;;;;;;;;;;3.80;99.90;;;;;;5013375;28;19948;-72
2022/11/13 06:03:57;;;;;;;;;;;3.80;99.90;;;;;;4998116;28;20011;-73
2022/11/13 06:06:47;;;;;;;;;;;3.80;99.90;;;;;;4996909;28;19949;-75
2022/11/13 06:09:37;;;;;;;;;;;3.80;99.90;;;;;;4997407;28;19932;-75
2022/11/13 06:12:22;;;;;;;;;;;3.80;99.90;;;;;;4995289;28;19932;-74
2022/11/13 06:15:12;;;;;;;;;;;3.80;99.90;;;;;;5013289;28;20026;-74
2022/11/13 06:17:58;;;;;;;;;;;3.80;99.90;;;;;;4997363;28;20028;-75
2022/11/13 06:20:48;;;;;;;;;;;3.70;99.90;;;;;;4999140;28;19936;-74
2022/11/13 06:23:39;;;;;;;;;;;3.70;99.90;;;;;;5013054;28;20372;-75
2022/11/13 06:26:30;;;;;;;;;;;3.60;99.90;;;;;;4997801;28;20666;-74
2022/11/13 06:29:15;;;;;;;;;;;3.70;99.90;;;;;;5011527;28;19936;-74
2022/11/13 06:32:05;;;;;;;;;;;3.70;99.90;;;;;;4998430;28;20098;-76
2022/11/13 06:34:56;;;;;;;;;;;3.60;99.90;;;;;;4998572;28;19935;-77
2022/11/13 06:37:46;;;;;;;;;;;3.60;99.90;;;;;;5012484;28;19936;-73
2022/11/13 06:40:31;;;;;;;;;;;3.60;99.90;;;;;;4997830;28;19932;-76
2022/11/13 06:43:16;;;;;;;;;;;3.60;99.90;;;;;;5012553;28;20287;-76
2022/11/13 06:46:10;;;;;;;;;;;3.60;99.90;;;;;;4996771;28;19980;-75
2022/11/13 06:49:00;;;;;;;;;;;3.60;99.90;;;;;;5010724;28;20694;-74
2022/11/13 06:51:45;;;;;;;;;;;3.60;99.90;;;;;;4994945;28;19940;-74
2022/11/13 06:54:35;;;;;;;;;;;3.70;99.90;;;;;;4997480;28;20327;-75
2022/11/13 06:57:25;;;;;;;;;;;3.80;99.90;;;;;;5012038;28;20050;-74
2022/11/13 07:00:16;;;;;;;;;;;3.80;99.90;;;;;;4995740;28;19933;-74
2022/11/13 07:03:01;;;;;;;;;;;3.70;99.90;;;;;;4997149;28;19932;-79
2022/11/13 07:05:52;;;;;;;;;;;3.70;99.90;;;;;;5007661;28;20319;-75
2022/11/13 07:08:42;;;;;;;;;;;3.70;99.90;;;;;;5005595;28;19932;-73
2022/11/13 07:11:33;;;;;;;;;;;3.60;99.90;;;;;;4994154;28;19932;-75
2022/11/13 07:14:18;;;;;;;;;;;3.60;99.90;;;;;;4995880;28;20430;-75
2022/11/13 07:17:08;;;;;;;;;;;3.60;99.90;;;;;;4994138;28;19932;-73
2022/11/13 07:19:54;;;;;;;;;;;3.60;99.90;;;;;;5004825;28;19932;-76
2022/11/13 07:22:44;;;;;;;;;;;3.60;99.90;;;;;;4992588;28;19936;-74
2022/11/13 07:25:29;;;;;;;;;;;3.80;99.90;;;;;;5009969;28;19936;-74
2022/11/13 07:28:20;;;;;;;;;;;3.90;99.90;;;;;;4995512;28;19933;-76
2022/11/13 07:31:11;;;;;;;;;;;3.90;99.90;;;;;;5011495;28;20572;-75
2022/11/13 07:33:57;;;;;;;;;;;3.80;99.90;;;;;;5009689;28;19993;-75
2022/11/13 07:36:47;;;;;;;;;;;3.90;99.90;;;;;;5011068;28;19933;-75
2022/11/13 07:39:37;;;;;;;;;;;3.90;99.90;;;;;;5009604;28;20005;-76
2022/11/13 07:42:22;;;;;;;;;;;4.00;99.90;;;;;;4994207;28;19936;-75
2022/11/13 07:45:07;;;;;;;;;;;4.00;99.90;;;;;;4996526;28;19933;-75
2022/11/13 07:48:01;;;;;;;;;;;4.10;99.90;;;;;;5010134;28;19976;-75
2022/11/13 07:50:51;;;;;;;;;;;4.10;99.90;;;;;;4995713;28;19980;-75
2022/11/13 07:53:41;;;;;;;;;;;4.10;99.90;;;;;;5010807;28;20319;-73
2022/11/13 07:56:26;;;;;;;;;;;4.20;99.90;;;;;;5010561;28;19936;-75
2022/11/13 07:59:12;;;;;;;;;;;4.20;99.90;;;;;;4994654;28;20031;-74
2022/11/13 08:01:57;;;;;;;;;;;4.20;99.90;;;;;;5011086;28;20326;-76
2022/11/13 08:04:47;;;;;;;;;;;4.20;99.90;;;;;;5010530;28;19932;-74
2022/11/13 08:07:32;;;;;;;;;;;4.20;99.90;;;;;;5010061;28;19980;-74
2022/11/13 08:10:23;;;;;;;;;;;4.10;99.90;;;;;;4996744;28;20431;-75
2022/11/13 08:13:13;;;;;;;;;;;4.10;99.90;;;;;;4998355;28;19932;-73
2022/11/13 08:16:03;;;;;;;;;;;4.10;99.90;;;;;;4995778;28;20023;-71
2022/11/13 08:18:53;;;;;;;;;;;4.20;99.90;;;;;;4996383;28;19935;-74
2022/11/13 08:21:43;;;;;;;;;;;4.20;99.90;;;;;;4994381;28;19933;-73
2022/11/13 08:24:28;;;;;;;;;;;4.20;99.90;;;;;;4991644;28;19948;-74
2022/11/13 08:27:19;;;;;;;;;;;4.20;99.90;;;;;;4997839;28;20391;-76
2022/11/13 08:30:10;;;;;;;;;;;4.30;99.90;;;;;;4993754;28;20471;-74
2022/11/13 08:32:55;;;;;;;;;;;4.30;99.90;;;;;;4999622;28;20029;-74
2022/11/13 08:35:52;;;;;;;;;;;4.40;99.90;;;;;;5008955;28;19935;-74
2022/11/13 08:38:42;;;;;;;;;;;4.50;99.90;;;;;;4994491;28;19932;-74
2022/11/13 08:41:33;;;;;;;;;;;4.50;99.90;;;;;;4993143;28;20059;-72
2022/11/13 08:44:23;;;;;;;;;;;4.60;99.90;;;;;;4995491;28;20360;-74
2022/11/13 08:47:13;;;;;;;;;;;4.70;99.90;;;;;;4991853;28;19947;-72
2022/11/13 08:50:04;;;;;;;;;;;4.80;99.90;;;;;;4995383;28;19948;-72
2022/11/13 08:52:54;;;;;;;;;;;4.80;99.90;;;;;;4990631;28;19932;-74
2022/11/13 08:55:44;;;;;;;;;;;4.90;99.90;;;;;;4995477;28;19931;-72
2022/11/13 08:58:34;;;;;;;;;;;4.80;99.90;;;;;;4996056;28;19937;-73
2022/11/13 09:01:24;;;;;;;;;;;4.90;99.90;;;;;;5007576;28;20283;-75
2022/11/13 09:04:14;;;;;;;;;;;4.90;99.90;;;;;;4992876;28;19952;-73
2022/11/13 09:07:04;;;;;;;;;;;4.90;99.90;;;;;;4993437;28;19936;-73
2022/11/13 09:09:54;;;;;;;;;;;5.00;99.90;;;;;;5010031;28;19952;-74
2022/11/13 09:12:40;;;;;;;;;;;5.00;99.90;;;;;;4995468;28;19993;-73
2022/11/13 09:15:30;;;;;;;;;;;5.00;99.90;;;;;;4995522;28;19937;-74
2022/11/13 09:18:21;;;;;;;;;;;5.10;99.90;;;;;;4994588;28;19964;-74
2022/11/13 09:21:06;;;;;;;;;;;5.20;99.90;;;;;;4992590;28;19984;-71
2022/11/13 09:23:51;;;;;;;;;;;5.20;99.90;;;;;;5005983;28;20850;-73
2022/11/13 09:26:36;;;;;;;;;;;5.30;99.90;;;;;;5008134;28;19956;-73
2022/11/13 09:29:27;;;;;;;;;;;5.30;99.90;;;;;;4994401;28;20019;-74
2022/11/13 09:32:13;;;;;;;;;;;5.50;99.90;;;;;;5006547;28;19933;-74
2022/11/13 09:34:59;;;;;;;;;;;5.50;99.90;;;;;;5012164;28;19992;-75
2022/11/13 09:37:50;;;;;;;;;;;5.60;99.90;;;;;;5013064;28;19933;-74
2022/11/13 09:40:45;;;;;;;;;;;5.70;99.90;;;;;;5012819;28;20402;-74
2022/11/13 09:43:35;;;;;;;;;;;5.70;99.90;;;;;;5004750;28;19936;-75
2022/11/13 09:46:26;;;;;;;;;;;5.70;99.90;;;;;;5011568;28;19952;-74
2022/11/13 09:49:21;;;;;;;;;;;5.70;99.90;;;;;;4995849;28;19936;-75
2022/11/13 09:52:30;;;;;;;;;;;5.70;99.90;;;;;;5000082;28;19941;-75
2022/11/13 09:55:22;;;;;;;;;;;5.80;99.90;;;;;;4991263;28;19936;-74
2022/11/13 09:58:24;;;;;;;;;;;5.90;99.90;;;;;;5003643;28;20072;-75
2022/11/13 10:01:22;;;;;;;;;;;5.90;99.90;;;;;;5012290;28;19936;-75
2022/11/13 10:04:13;;;;;;;;;;;5.90;99.90;;;;;;4992083;28;20292;-78
2022/11/13 10:06:58;;;;;;;;;;;5.90;99.90;;;;;;5013034;28;19937;-76
2022/11/13 10:09:53;;;;;;;;;;;6.00;99.90;;;;;;5012947;28;19983;-76
2022/11/13 10:12:38;;;;;;;;;;;6.00;99.90;;;;;;4998113;28;20491;-75
2022/11/13 10:15:29;;;;;;;;;;;6.00;99.90;;;;;;5011836;28;19968;-75
2022/11/13 10:18:27;;;;;;;;;;;6.00;99.90;;;;;;4998339;28;20030;-74
2022/11/13 10:21:31;;;;;;;;;;;6.00;99.90;;;;;;5005745;28;19932;-74
2022/11/13 10:24:24;;;;;;;;;;;6.10;99.90;;;;;;5013378;28;19931;-75
2022/11/13 10:27:10;;;;;;;;;;;6.20;99.90;;;;;;4998753;28;20017;-74
2022/11/13 10:30:01;;;;;;;;;;;6.20;99.90;;;;;;4999843;28;19987;-74
2022/11/13 10:32:51;;;;;;;;;;;6.30;99.90;;;;;;4999814;28;19933;-74
2022/11/13 10:35:49;;;;;;;;;;;6.30;99.90;;;;;;4999061;28;19933;-74
2022/11/13 10:38:43;;;;;;;;;;;6.30;99.90;;;;;;5013690;28;19972;-74
2022/11/13 10:41:28;;;;;;;;;;;6.30;99.90;;;;;;4998816;28;19933;-74
2022/11/13 10:44:16;;;;;;;;;;;6.40;99.90;;;;;;5014023;28;20434;-75
2022/11/13 10:47:14;;;;;;;;;;;6.40;99.90;;;;;;4996040;28;19936;-74
2022/11/13 10:50:24;;;;;;;;;;;6.40;99.90;;;;;;5008223;28;20355;-73
2022/11/13 10:53:16;;;;;;;;;;;6.50;99.90;;;;;;4997270;28;20423;-73
2022/11/13 10:56:20;;;;;;;;;;;6.50;99.90;;;;;;5012593;28;19937;-75
2022/11/13 10:59:12;;;;;;;;;;;6.50;99.90;;;;;;4997220;28;19932;-74
2022/11/13 11:02:19;;;;;;;;;;;6.60;99.90;;;;;;4994005;28;19932;-75
2022/11/13 11:05:18;;;;;;;;;;;6.70;99.90;;;;;;4998235;28;19932;-73
2022/11/13 11:08:09;;;;;;;;;;;6.80;99.90;;;;;;4992270;28;19932;-73
2022/11/13 11:14:27;;;;;;;;;;;6.90;99.90;;;;;;4975328;28;19933;-74
2022/11/13 11:17:13;;;;;;;;;;;7.00;99.90;;;;;;4978437;28;19933;-73
2022/11/13 11:20:09;;;;;;;;;;;7.10;99.90;;;;;;4999415;28;20442;-73
2022/11/13 11:22:57;;;;;;;;;;;7.20;99.90;;;;;;5012813;28;20400;-73
2022/11/13 11:25:48;;;;;;;;;;;7.20;99.90;;;;;;5012782;28;20312;-71
2022/11/13 11:29:07;;;;;;;;;;;7.30;99.90;;;;;;4996858;28;19933;-72
2022/11/13 11:32:05;;;;;;;;;;;7.30;99.90;;;;;;4980172;28;20071;-74
2022/11/13 11:35:00;;;;;;;;;;;7.40;99.90;;;;;;4991471;28;20072;-73
2022/11/13 11:38:01;;;;;;;;;;;7.50;99.90;;;;;;4992524;28;19933;-73
2022/11/13 11:40:54;;;;;;;;;;;7.60;99.90;;;;;;5011411;28;19957;-71
2022/11/13 11:43:44;;;;;;;;;;;7.70;99.90;;;;;;4998560;28;19972;-72
2022/11/13 11:46:35;;;;;;;;;;;7.90;99.90;;;;;;5007410;28;20022;-72
2022/11/13 11:49:25;;;;;;;;;;;8.10;99.90;;;;;;5002814;28;20012;-77
2022/11/13 11:52:36;;;;;;;;;;;8.20;99.90;;;;;;4996767;28;20007;-73
2022/11/13 11:55:37;;;;;;;;;;;8.30;99.90;;;;;;4988935;28;19937;-74
2022/11/13 11:58:30;;;;;;;;;;;8.50;99.90;;;;;;5011036;28;19936;-72
2022/11/13 12:01:36;;;;;;;;;;;8.50;99.90;;;;;;5008605;28;19933;-73
2022/11/13 12:04:38;;;;;;;;;;;8.50;99.90;;;;;;5007701;28;20007;-72
2022/11/13 12:07:34;;;;;;;;;;;8.30;99.90;;;;;;4980518;28;20020;-73
2022/11/13 12:10:28;;;;;;;;;;;8.30;99.90;;;;;;5007349;28;20400;-72
2022/11/13 12:13:27;;;;;;;;;;;8.30;99.90;;;;;;5011131;28;20031;-73
2022/11/13 12:16:24;;;;;;;;;;;8.40;99.90;;;;;;4999351;28;19940;-73
2022/11/13 12:19:29;;;;;;;;;;;8.50;99.90;;;;;;5001284;28;19979;-74
2022/11/13 12:22:26;;;;;;;;;;;8.60;99.90;;;;;;5010572;28;20030;-72
2022/11/13 12:25:28;;;;;;;;;;;8.70;99.90;;;;;;4996413;28;19964;-71
2022/11/13 12:28:19;;;;;;;;;;;8.70;99.90;;;;;;5009694;28;19940;-74
2022/11/13 12:31:24;;;;;;;;;;;8.80;99.90;;;;;;4995531;28;20414;-73
2022/11/13 12:34:14;;;;;;;;;;;8.90;99.90;;;;;;5008423;28;19960;-73
2022/11/13 12:37:00;;;;;;;;;;;9.10;99.90;;;;;;5009934;28;19952;-73
2022/11/13 12:40:01;;;;;;;;;;;9.20;99.90;;;;;;5005570;28;20015;-74
2022/11/13 12:42:59;;;;;;;;;;;9.20;99.90;;;;;;4998430;28;19932;-73
2022/11/13 12:45:49;;;;;;;;;;;9.30;99.90;;;;;;5011379;28;20430;-74
2022/11/13 12:48:44;;;;;;;;;;;9.40;99.90;;;;;;5009501;28;19932;-73
2022/11/13 12:51:39;;;;;;;;;;;9.40;99.90;;;;;;4996811;28;19932;-72
2022/11/13 12:54:33;;;;;;;;;;;9.50;99.90;;;;;;5007959;28;20019;-74
2022/11/13 12:57:24;;;;;;;;;;;9.60;99.90;;;;;;5005963;28;20407;-74
2022/11/13 13:00:22;;;;;;;;;;;9.70;99.90;;;;;;5004603;28;20019;-73
2022/11/13 13:03:12;;;;;;;;;;;9.80;99.90;;;;;;4986703;28;19932;-74
2022/11/13 13:06:09;;;;;;;;;;;9.90;99.90;;;;;;5003322;28;19937;-73
2022/11/13 13:09:00;;;;;;;;;;;9.90;99.90;;;;;;5006712;28;20407;-74
2022/11/13 13:12:01;;;;;;;;;;;9.90;99.90;;;;;;4993511;28;19980;-75
2022/11/13 13:14:51;;;;;;;;;;;10.00;99.90;;;;;;5014932;28;20389;-73
2022/11/13 13:17:36;;;;;;;;;;;10.00;99.90;;;;;;5010164;28;19931;-73
2022/11/13 13:20:31;;;;;;;;;;;10.00;99.90;;;;;;5000406;28;19932;-74
2022/11/13 13:23:26;;;;;;;;;;;10.00;99.90;;;;;;5014765;28;20010;-74
2022/11/13 13:26:24;;;;;;;;;;;10.10;99.90;;;;;;5007296;28;20054;-74
2022/11/13 13:29:20;;;;;;;;;;;10.00;99.90;;;;;;5014319;28;19932;-73
2022/11/13 13:32:17;;;;;;;;;;;10.10;99.90;;;;;;4979876;28;19933;-73
2022/11/13 13:35:14;;;;;;;;;;;10.00;99.90;;;;;;4989533;28;19941;-73
2022/11/13 13:38:24;;;;;;;;;;;10.00;99.90;;;;;;5013751;28;20007;-73
2022/11/13 13:41:34;;;;;;;;;;;10.10;99.90;;;;;;4994849;28;19932;-73
2022/11/13 13:44:39;;;;;;;;;;;10.00;99.90;;;;;;4987228;28;19940;-73
2022/11/13 13:47:37;;;;;;;;;;;10.00;99.90;;;;;;4996740;28;20005;-72
2022/11/13 13:50:31;;;;;;;;;;;9.90;99.90;;;;;;4999912;28;20320;-73
2022/11/13 13:53:22;;;;;;;;;;;9.80;99.90;;;;;;5011316;28;20343;-73
2022/11/13 13:56:13;;;;;;;;;;;9.80;99.90;;;;;;5008089;28;20509;-74
2022/11/13 13:58:58;;;;;;;;;;;9.80;99.90;;;;;;5013474;28;19936;-73
2022/11/13 14:01:53;;;;;;;;;;;9.70;99.90;;;;;;5002946;28;19948;-73
2022/11/13 14:04:48;;;;;;;;;;;9.60;99.90;;;;;;5013352;28;20415;-74
2022/11/13 14:07:34;;;;;;;;;;;9.50;99.90;;;;;;4985643;28;19932;-72
2022/11/13 14:10:27;;;;;;;;;;;9.50;99.90;;;;;;5000051;28;19933;-73
2022/11/13 14:13:25;;;;;;;;;;;9.40;99.90;;;;;;5002071;28;20443;-74
2022/11/13 14:16:15;;;;;;;;;;;9.30;99.90;;;;;;4997832;28;20031;-74
2022/11/13 14:19:05;;;;;;;;;;;9.20;99.90;;;;;;4999571;28;20284;-71
2022/11/13 14:21:57;;;;;;;;;;;9.40;99.90;;;;;;4996350;28;19949;-73
2022/11/13 14:24:52;;;;;;;;;;;9.40;99.90;;;;;;4996576;28;19932;-74
2022/11/13 14:27:37;;;;;;;;;;;9.40;99.90;;;;;;4990836;28;20403;-72
2022/11/13 14:30:29;;;;;;;;;;;9.50;99.90;;;;;;4995090;28;19935;-73
2022/11/13 14:33:24;;;;;;;;;;;9.40;99.90;;;;;;4986601;28;20011;-72
2022/11/13 14:36:10;;;;;;;;;;;9.40;99.90;;;;;;5011645;28;19984;-72
2022/11/13 14:39:00;;;;;;;;;;;9.30;99.90;;;;;;4995104;28;19932;-72
2022/11/13 14:41:55;;;;;;;;;;;9.10;99.90;;;;;;4993631;28;20015;-73
2022/11/13 14:44:45;;;;;;;;;;;8.90;99.90;;;;;;5007243;28;20446;-72
2022/11/13 14:47:36;;;;;;;;;;;8.60;99.90;;;;;;5007342;28;20399;-72
2022/11/13 14:50:31;;;;;;;;;;;8.50;99.90;;;;;;4993780;28;19932;-72
2022/11/13 14:53:28;;;;;;;;;;;8.30;99.90;;;;;;4986150;28;20003;-74
2022/11/13 14:56:18;;;;;;;;;;;8.10;99.90;;;;;;4994829;28;20562;-74
2022/11/13 14:59:28;;;;;;;;;;;8.00;99.90;;;;;;5013033;28;19952;-74
2022/11/13 15:02:14;;;;;;;;;;;7.90;99.90;;;;;;4995223;28;19932;-72
2022/11/13 15:05:04;;;;;;;;;;;7.70;99.90;;;;;;4999714;28;20023;-74
2022/11/13 15:07:54;;;;;;;;;;;7.50;99.90;;;;;;5012215;28;19932;-73
2022/11/13 15:10:44;;;;;;;;;;;7.40;99.90;;;;;;4999070;28;20007;-73
2022/11/13 15:13:34;;;;;;;;;;;7.20;99.90;;;;;;5013047;28;20056;-73
2022/11/13 15:16:27;;;;;;;;;;;7.10;99.90;;;;;;4994077;28;19932;-72
2022/11/13 15:19:17;;;;;;;;;;;7.00;99.90;;;;;;5012983;28;20011;-73
2022/11/13 15:22:09;;;;;;;;;;;6.90;99.90;;;;;;4998652;28;20015;-74
2022/11/13 15:24:54;;;;;;;;;;;6.80;99.90;;;;;;5012140;28;19932;-73
2022/11/13 15:27:44;;;;;;;;;;;6.70;99.90;;;;;;5011836;28;20007;-74
2022/11/13 15:30:35;;;;;;;;;;;6.70;99.90;;;;;;4996222;28;19937;-72
2022/11/13 15:33:21;;;;;;;;;;;6.90;99.90;;;;;;4996009;28;20296;-72
2022/11/13 15:36:11;;;;;;;;;;;7.00;99.90;;;;;;5005332;28;20019;-74
2022/11/13 15:39:02;;;;;;;;;;;7.00;99.90;;;;;;4992895;28;19932;-73
2022/11/13 15:41:52;;;;;;;;;;;6.90;99.90;;;;;;4984104;28;20622;-73
2022/11/13 15:44:42;;;;;;;;;;;7.00;99.90;;;;;;4998255;28;20451;-73
2022/11/13 15:47:33;;;;;;;;;;;7.10;99.90;;;;;;5011620;28;20824;-73
2022/11/13 15:50:23;;;;;;;;;;;7.30;99.90;;;;;;5011270;28;19932;-73
2022/11/13 15:53:14;;;;;;;;;;;7.20;99.90;;;;;;5011314;28;19932;-72
2022/11/13 15:56:05;;;;;;;;;;;7.10;99.90;;;;;;5011267;28;20316;-72
2022/11/13 15:58:55;;;;;;;;;;;7.00;99.90;;;;;;5004232;28;19932;-72
2022/11/13 16:01:46;;;;;;;;;;;7.10;99.90;;;;;;5009042;28;20571;-73
2022/11/13 16:04:31;;;;;;;;;;;7.00;99.90;;;;;;4989607;28;19944;-73
2022/11/13 16:07:25;;;;;;;;;;;6.80;99.90;;;;;;4997464;28;19933;-74
2022/11/13 16:10:16;;;;;;;;;;;6.60;99.90;;;;;;4998880;28;19933;-73
2022/11/13 16:13:06;;;;;;;;;;;6.40;99.90;;;;;;4981023;28;19949;-72
2022/11/13 16:15:57;;;;;;;;;;;6.10;99.90;;;;;;4978118;28;20001;-73
2022/11/13 16:18:49;;;;;;;;;;;5.90;99.90;;;;;;4992076;28;19988;-73
2022/11/13 16:21:34;;;;;;;;;;;5.70;99.90;;;;;;4996769;28;20403;-73
2022/11/13 16:24:24;;;;;;;;;;;5.50;99.90;;;;;;5004208;28;20006;-73
2022/11/13 16:27:16;;;;;;;;;;;5.40;99.90;;;;;;5013704;23;19940;31
2022/11/13 16:30:11;;;;;;;;;;;5.30;99.90;;;;;;4968319;28;19937;-71
2022/11/13 16:33:04;;;;;;;;;;;5.20;99.90;;;;;;4976165;28;19956;-71
2022/11/13 16:35:54;;;;;;;;;;;5.10;99.90;;;;;;4970801;28;19976;-71
2022/11/13 16:38:44;;;;;;;;;;;5.10;99.90;;;;;;4968214;28;20502;-71
2022/11/13 16:41:30;;;;;;;;;;;4.90;99.90;;;;;;4966693;28;19933;-71
2022/11/13 16:44:15;;;;;;;;;;;4.80;99.90;;;;;;4972403;28;19941;-70
2022/11/13 16:47:20;;;;;;;;;;;4.70;99.90;;;;;;4973204;28;19933;-71
2022/11/13 16:50:26;;;;;;;;;;;4.70;99.90;;;;;;4972195;28;19932;-71
2022/11/13 16:53:17;;;;;;;;;;;4.70;99.90;;;;;;4972780;28;20287;-71
2022/11/13 16:56:12;;;;;;;;;;;4.60;99.90;;;;;;4983810;28;20073;-71